Time,TemperatureF,DewpointF,PressureIn,WindDirection,WindDirectionDegrees,WindSpeedMPH,WindSpeedGustMPH,Humidity,HourlyPrecipIn,Conditions,Clouds,dailyrainin,SoftwareType,DateUTC
2013-12-19 00:21:00,46.0,22.0,29.68,South,188,11.0,25.0,39,-99.99,,,0.00,,2013-12-19 07:21:00,
2013-12-19 00:42:00,46.0,22.0,29.66,SSW,207,15.0,25.0,39,-99.99,,,0.00,,2013-12-19 07:42:00,
2013-12-19 00:52:00,45.0,23.0,29.68,SSW,210,11.0,24.0,41,-99.99,,,0.00,,2013-12-19 07:52:00,
2013-12-19 01:11:00,45.0,23.0,29.67,SW,219,18.0,24.0,41,-99.99,,,0.00,,2013-12-19 08:11:00,
2013-12-19 01:21:00,45.0,23.0,29.66,SSW,213,19.0,29.0,42,-99.99,,,0.00,,2013-12-19 08:21:00,
2013-12-19 01:32:00,45.0,23.0,29.66,SSW,213,19.0,29.0,42,-99.99,,,0.00,,2013-12-19 08:32:00,
2013-12-19 01:52:00,44.0,23.0,29.59,SW,222,26.0,38.0,43,-99.99,,,0.00,,2013-12-19 08:52:00,
2013-12-19 02:02:00,44.0,23.0,29.59,SW,222,26.0,38.0,43,-99.99,,,0.00,,2013-12-19 09:02:00,
2013-12-19 02:22:00,44.0,23.0,29.58,SW,226,29.0,33.0,44,-99.99,,,0.00,,2013-12-19 09:22:00,
2013-12-19 02:43:00,44.0,23.0,29.58,SW,221,34.0,34.0,44,-99.99,,,0.00,,2013-12-19 09:43:00,
2013-12-19 02:54:00,44.0,24.0,29.59,SW,229,12.0,36.0,45,-99.99,,,0.00,,2013-12-19 09:54:00,
2013-12-19 03:03:00,44.0,24.0,29.59,SW,229,12.0,36.0,45,-99.99,,,0.00,,2013-12-19 10:03:00,
2013-12-19 03:23:00,43.0,24.0,29.57,SW,221,22.0,38.0,46,-99.99,,,0.00,,2013-12-19 10:23:00,
2013-12-19 03:33:00,43.0,24.0,29.57,SW,221,22.0,38.0,46,-99.99,,,0.00,,2013-12-19 10:33:00,
2013-12-19 03:53:00,43.0,25.0,29.58,SW,232,21.0,40.0,48,-99.99,,,0.00,,2013-12-19 10:53:00,
2013-12-19 04:02:00,43.0,25.0,29.58,SW,232,21.0,40.0,48,-99.99,,,0.00,,2013-12-19 11:02:00,
2013-12-19 04:22:00,42.0,24.0,29.57,SW,219,16.0,39.0,49,-99.99,,,0.00,,2013-12-19 11:22:00,
2013-12-19 04:42:00,41.0,25.0,29.57,SW,215,15.0,39.0,51,-99.99,,,0.00,,2013-12-19 11:42:00,
2013-12-19 04:53:00,41.0,25.0,29.59,SSW,207,14.0,32.0,52,-99.99,,,0.00,,2013-12-19 11:53:00,
2013-12-19 05:02:00,41.0,25.0,29.59,SSW,207,14.0,32.0,52,-99.99,,,0.00,,2013-12-19 12:02:00,
2013-12-19 05:21:00,41.0,25.0,29.57,SSW,199,17.0,30.0,53,-99.99,,,0.00,,2013-12-19 12:21:00,
2013-12-19 05:42:00,41.0,25.0,29.57,SSW,213,22.0,33.0,53,-99.99,,,0.00,,2013-12-19 12:42:00,
2013-12-19 05:52:00,41.0,25.0,29.57,SW,216,18.0,35.0,53,-99.99,,,0.00,,2013-12-19 12:52:00,
2013-12-19 06:02:00,41.0,25.0,29.57,SW,216,18.0,35.0,53,-99.99,,,0.00,,2013-12-19 13:02:00,
2013-12-19 06:22:00,40.0,25.0,29.57,SSW,192,21.0,38.0,55,-99.99,,,0.00,,2013-12-19 13:22:00,
2013-12-19 06:32:00,40.0,25.0,29.57,SSW,192,21.0,38.0,55,-99.99,,,0.00,,2013-12-19 13:32:00,
2013-12-19 06:52:00,40.0,26.0,29.58,SW,228,23.0,36.0,57,-99.99,,,-99.99,,2013-12-19 13:52:00,
2013-12-19 07:02:00,40.0,26.0,29.58,SW,228,23.0,36.0,57,-99.99,,,-99.99,,2013-12-19 14:02:00,
2013-12-19 07:21:00,39.0,26.0,29.59,SW,215,20.0,37.0,58,-99.99,,,0.00,,2013-12-19 14:21:00,
2013-12-19 07:32:00,39.0,26.0,29.59,SW,215,20.0,37.0,58,-99.99,,,0.00,,2013-12-19 14:32:00,
2013-12-19 07:52:00,39.0,26.0,29.55,SW,227,30.0,40.0,58,-99.99,,,0.00,,2013-12-19 14:52:00,
2013-12-19 08:02:00,39.0,26.0,29.55,SW,227,30.0,40.0,58,-99.99,,,0.00,,2013-12-19 15:02:00,
2013-12-19 08:22:00,39.0,25.0,29.54,SSW,202,26.0,43.0,58,-99.99,,,0.00,,2013-12-19 15:22:00,
2013-12-19 08:33:00,39.0,25.0,29.54,SSW,202,26.0,43.0,58,-99.99,,,0.00,,2013-12-19 15:33:00,
2013-12-19 08:54:00,39.0,25.0,29.54,SW,234,27.0,43.0,57,-99.99,,,0.00,,2013-12-19 15:54:00,
2013-12-19 09:12:00,39.0,25.0,29.55,SSW,213,27.0,43.0,56,-99.99,,,0.00,,2013-12-19 16:12:00,
2013-12-19 09:23:00,40.0,25.0,29.54,SW,217,27.0,40.0,54,-99.99,,,0.00,,2013-12-19 16:23:00,
2013-12-19 09:33:00,40.0,25.0,29.54,SW,217,27.0,40.0,54,-99.99,,,0.00,,2013-12-19 16:33:00,
2013-12-19 09:42:00,40.0,25.0,29.54,SW,217,27.0,40.0,54,-99.99,,,0.00,,2013-12-19 16:42:00,
2013-12-19 09:53:00,41.0,26.0,29.56,SW,227,26.0,37.0,55,-99.99,,,0.00,,2013-12-19 16:53:00,
2013-12-19 10:02:00,41.0,26.0,29.56,SW,227,26.0,37.0,55,-99.99,,,0.00,,2013-12-19 17:02:00,
2013-12-19 10:12:00,41.0,26.0,29.56,SW,227,26.0,37.0,55,-99.99,,,0.00,,2013-12-19 17:12:00,
2013-12-19 10:52:00,41.0,25.0,29.58,SSW,207,22.0,40.0,51,-99.99,,,0.00,,2013-12-19 17:52:00,
2013-12-19 11:02:00,41.0,25.0,29.58,SSW,207,22.0,40.0,51,-99.99,,,0.00,,2013-12-19 18:02:00,
2013-12-19 11:21:00,42.0,24.0,29.58,SSW,203,27.0,39.0,48,-99.99,,,-99.99,,2013-12-19 18:21:00,
2013-12-19 11:42:00,42.0,24.0,29.58,South,187,19.0,39.0,48,-99.99,,,-99.99,,2013-12-19 18:42:00,
2013-12-19 11:52:00,42.0,23.0,29.57,SW,217,23.0,37.0,46,-99.99,,,-99.99,,2013-12-19 18:52:00,
2013-12-19 12:01:00,42.0,23.0,29.57,SW,217,23.0,37.0,46,-99.99,,,-99.99,,2013-12-19 19:01:00,
2013-12-19 12:22:00,43.0,22.0,29.57,SW,224,26.0,40.0,43,-99.99,,,-99.99,,2013-12-19 19:22:00,
2013-12-19 12:32:00,43.0,22.0,29.57,SW,224,26.0,40.0,43,-99.99,,,-99.99,,2013-12-19 19:32:00,
2013-12-19 12:42:00,43.0,22.0,29.57,SW,224,26.0,40.0,43,-99.99,,,-99.99,,2013-12-19 19:42:00,
2013-12-19 19:21:00,35.0,29.0,29.69,SSW,209,10.0,14.0,78,-99.99,,,0.00,,2013-12-20 02:21:00,
2013-12-19 19:42:00,35.0,29.0,29.69,SSW,209,8.0,14.0,78,-99.99,,,0.00,,2013-12-20 02:42:00,
2013-12-19 19:52:00,35.0,29.0,29.69,SSW,205,6.0,13.0,77,-99.99,,,-99.99,,2013-12-20 02:52:00,
2013-12-19 20:02:00,35.0,29.0,29.69,SSW,205,6.0,13.0,77,-99.99,,,-99.99,,2013-12-20 03:02:00,
2013-12-19 20:22:00,34.0,29.0,29.72,SSW,198,4.0,6.0,85,-99.99,,,-99.99,,2013-12-20 03:22:00,
2013-12-19 20:33:00,34.0,29.0,29.72,SSW,198,4.0,6.0,85,-99.99,,,-99.99,,2013-12-20 03:33:00,
2013-12-19 20:53:00,33.0,30.0,29.71,North,-999,0.0,2.0,87,-99.99,,,-99.99,,2013-12-20 03:53:00,
2013-12-19 21:02:00,33.0,30.0,29.71,North,-999,0.0,2.0,87,-99.99,,,-99.99,,2013-12-20 04:02:00,
2013-12-19 21:23:00,33.0,30.0,29.68,North,-999,0.0,3.0,88,-99.99,,,-99.99,,2013-12-20 04:23:00,
2013-12-19 21:42:00,33.0,30.0,29.68,North,-999,0.0,3.0,88,-99.99,,,-99.99,,2013-12-20 04:42:00,
2013-12-19 21:53:00,33.0,30.0,29.67,North,-999,0.0,0.0,89,-99.99,,,-99.99,,2013-12-20 04:53:00,
2013-12-19 22:00:00,33.0,30.0,29.66,North,-999,0.0,4.0,89,-99.99,,,-99.99,,2013-12-20 05:00:00,
2013-12-19 22:03:00,33.0,30.0,29.67,North,-999,0.0,0.0,89,-99.99,,,-99.99,,2013-12-20 05:03:00,
2013-12-19 22:22:00,33.0,30.0,29.66,North,-999,0.0,0.0,89,-99.99,,,-99.99,,2013-12-20 05:22:00,
2013-12-19 22:43:00,33.0,30.0,29.66,North,-999,0.0,4.0,89,-99.99,,,-99.99,,2013-12-20 05:43:00,
2013-12-19 22:53:00,33.0,30.0,29.66,North,-999,0.0,4.0,89,-99.99,,,-99.99,,2013-12-20 05:53:00,
2013-12-19 23:22:00,32.0,29.0,29.67,SSW,200,1.0,2.0,88,-99.99,,,-99.99,,2013-12-20 06:22:00,
2013-12-19 23:43:00,32.0,29.0,29.67,North,-999,0.0,2.0,88,-99.99,,,0.00,,2013-12-20 06:43:00,
2013-12-19 23:52:00,33.0,29.0,29.66,North,-999,0.0,0.0,88,-99.99,,,0.00,,2013-12-20 06:52:00,